首页
METAR-TAF:

METAR-TAF

机场 :

瓜廖尔, 印度

纬度: 26-17-36N, 经度: 78-13-40E, 海拔: 188米

当前天气观测

该预报发布于20小时和49分钟前的01:00 UTC
风速4节,风向西转西南
温度 32°C
湿度 56%
气压 1000 hPa
能見度: 6000
散云层高于3000英尺
多云层高于10000英尺

METAR: VIGR 220100Z 25004KT 6000 SCT030 BKN100 32/22 Q1000 NOSIG

时间: 03:19 (21:49 UTC)

预报

该预报发布于12小时和19分钟前的09:30 UTC
预报有效从22日的 12点(UTC)到 22日的 24点(UTC)
风速5节,风向西
能見度: 6000
散云层高于3000英尺
散云层高于9000英尺
短暂存在
从 22日的 12点(UTC)到 22日的 14点(UTC)
风速10节,风向西,有时为20节阵风
能見度: 6000
散云层高于3000英尺
少量云层高于3000英尺, 积雨云.
散云层高于9000英尺
雷暴
短暂存在
从 22日的 22点(UTC)到 22日的 24点(UTC)
能見度: 5000
散云层高于9000英尺
霾,

TAF: VIGR 220930Z 2212/2224 27005KT 6000 SCT030 SCT090 TEMPO 2212/2214 28010G20KT 6000 TS SCT030 FEW030CB SCT090 TEMPO 2222/2224 5000 HZ SCT090

超过4000个机场的气象观测和天气预报(METAR&TAF报告)。

可查询的气象台以黄色和红色小点在地图上表示。

将鼠标移到小点上方,可查看气象台名称。

然后点击查看天气观测和预报。

如需切换地图:点击带黑十字的绿色按钮放大地图;点击带横线的绿色按钮缩小地图;或者点击绿色箭头查看邻近地区的地图。


METAR-TAF: